Service Notice

This observation station is currently unavailable due to a loss of power in the area.

Work to restore the service will be undertaken as soon as it is safe to do so.

The Bureau's national resources allow our meteorologists to produce accurate and timely forecasts and warnings in areas without observations, including for the locations around this station site. Search for forcast by town, city, post code or lat/lon here or find the location on the MetEye map.

Latest Coastal Weather Observations for Mallacoota

IDV60701

Issued at 12:52 am EST Saturday 20 April 2024 (issued every 10 minutes, with the page automatically refreshed every 10 minutes)

About coastal observations | Map of coastal stations | Coastal observations for VIC | Marine services | Other Formats
Station Details ID: 084084 Name: MALLACOOTA Lat: -37.60 Lon: 149.73 Height: 22.0 m
Data from the previous 72 hours. | See also: Recent months at Mallacoota
Date/Time
EST
Wind Sea
Height
m
Swell Vis
km
Cloud Weather Temp
°C
Press
MSL
hPa
Rain since
9am
mm
Dir  Spd
kts
Gust
kts
Height
m
Period
s
Dir
20/12:30am SW 7 12 - - - - - - - 14.6 1025.4 4.4
20/12:00am SW 8 12 - - - - - - - 14.9 1025.4 4.4
 
Date/Time
EST
Wind Sea
Height
m
Swell Vis
km
Cloud Weather Temp
°C
Press
MSL
hPa
Rain since
9am
mm
Dir  Spd
kts
Gust
kts
Height
m
Period
s
Dir
19/11:30pm SW 7 10 - - - - - - - 14.7 1025.3 4.4
19/11:00pm SSW 9 14 - - - - - - - 15.6 1025.2 4.4
19/10:30pm SSW 10 15 - - - - - - - 16.0 1025.3 4.4
19/10:00pm SSW 6 14 - - - - - - - 14.6 1025.3 4.4
19/09:30pm SW 7 11 - - - - - - - 14.6 1025.2 4.4
19/09:00pm SSW 12 19 - - - - - - - 15.7 1024.8 4.2
19/08:30pm S 11 17 - - - - - - - 16.5 1024.5 4.2
19/08:00pm SSW 11 15 - - - - - - - 16.5 1024.2 4.2
19/07:30pm S 11 17 - - - - - - - 16.3 1023.9 4.2
19/07:00pm S 13 19 - - - - - - - 16.5 1023.4 4.2
19/06:30pm S 14 19 - - - - - - - 16.5 1023.0 4.2
19/06:00pm S 11 20 - - - - - - Recent precip. 15.4 1022.5 4.2
19/05:30pm S 13 20 - - - - - - - 16.4 1022.0 3.6
19/05:00pm SW 7 13 - - - - - - - 14.8 1021.6 3.6
19/04:39pm S 16 27 - - - - - - - 14.5 1021.4 3.2
19/04:34pm S 12 27 - - - - - - - 15.3 1021.4 2.4
19/04:30pm S 9 13 - - - - - - - 16.6 1021.1 1.6
19/04:00pm S 13 19 - - - - - - - 16.0 1020.8 1.6
19/03:30pm SW 6 8 - - - - - - - 15.5 1020.6 1.6
19/03:00pm WSW 7 12 - - - - - - Recent precip. 15.0 1020.2 1.6
19/02:30pm SW 8 16 - - - - - - - 15.8 1019.9 1.2
19/02:00pm SW 7 12 - - - - - - - 16.3 1019.6 1.2
19/01:30pm WSW 7 11 - - - - - - - 18.0 1019.2 1.2
19/01:00pm WSW 8 11 - - - - - - - 15.9 1019.1 1.2
19/12:30pm WSW 7 13 - - - - - - - 15.3 1019.2 1.2
19/12:00pm SW 11 17 - - - - - - Rain 14.5 1019.5 0.6
19/11:30am SSW 15 22 - - - - - - - 15.1 1019.3 0.2
19/11:00am WSW 9 15 - - - - - - - 18.0 1018.7 0.0
19/10:30am WSW 10 17 - - - - - - - 17.3 1018.5 0.0
19/10:00am WSW 8 13 - - - - - - - 16.8 1018.3 0.0
19/09:30am WSW 10 15 - - - - - - - 15.8 1018.0 0.0
19/09:00am W 6 11 - - - - - - - 14.4 1017.7 0.8
19/08:30am W 9 14 - - - - - - - 14.6 1017.5 0.8
19/08:00am W 7 9 - - - - - - - 13.4 1017.5 0.8
19/07:30am W 6 10 - - - - - - - 12.8 1017.2 0.8
19/07:00am W 8 13 - - - - - - - 12.8 1016.7 0.6
19/06:30am W 8 12 - - - - - - - 12.9 1016.2 0.0
19/06:00am W 8 15 - - - - - - - 13.3 1015.7 0.0
19/05:30am W 8 13 - - - - - - - 13.7 1015.0 0.0
19/05:00am W 9 15 - - - - - - - 13.8 1014.7 0.0
19/04:30am WNW 5 9 - - - - - - - 13.7 1014.5 0.0
19/04:00am W 6 10 - - - - - - - 14.1 1014.2 0.0
19/03:30am WNW 5 8 - - - - - - - 14.4 1014.2 0.0
19/03:00am WNW 5 7 - - - - - - - 14.3 1014.3 0.0
19/02:30am W 4 7 - - - - - - - 13.8 1014.4 0.0
19/02:00am WNW 4 5 - - - - - - - 12.3 1014.6 0.0
19/01:30am WNW 3 4 - - - - - - - 12.5 1014.7 0.0
19/01:00am W 3 5 - - - - - - - 13.1 1014.7 0.0
19/12:30am W 5 9 - - - - - - - 14.0 1014.6 0.0
19/12:00am W 5 8 - - - - - - - 14.0 1014.7 0.0
 
Date/Time
EST
Wind Sea
Height
m
Swell Vis
km
Cloud Weather Temp
°C
Press
MSL
hPa
Rain since
9am
mm
Dir  Spd
kts
Gust
kts
Height
m
Period
s
Dir
18/11:30pm WNW 5 7 - - - - - - - 14.2 1014.8 0.0
18/11:00pm W 5 10 - - - - - - - 14.3 1015.0 0.0
18/10:30pm W 5 9 - - - - - - - 14.4 1015.2 0.0
18/10:00pm WNW 5 8 - - - - - - - 14.2 1015.5 0.0
18/09:30pm W 6 9 - - - - - - - 14.0 1015.7 0.0
18/09:00pm W 5 7 - - - - - - - 14.1 1015.8 0.0
18/08:30pm W 5 8 - - - - - - - 14.0 1015.6 0.0
18/08:00pm W 5 9 - - - - - - - 14.0 1015.6 0.0
18/07:30pm W 5 9 - - - - - - - 14.0 1015.8 0.0
18/07:00pm W 5 7 - - - - - - - 14.2 1015.8 0.0
18/06:30pm W 5 8 - - - - - - - 14.4 1015.6 0.0
18/06:00pm WSW 5 8 - - - - - - - 14.5 1015.5 0.0
18/05:30pm WSW 5 9 - - - - - - - 14.9 1015.5 0.0
18/05:00pm WSW 7 11 - - - - - - - 15.5 1015.5 0.0
18/04:30pm WSW 10 17 - - - - - - - 15.9 1015.5 0.0
18/04:00pm SW 9 17 - - - - - - - 16.4 1015.7 0.0
18/03:30pm SW 10 16 - - - - - - - 17.1 1015.6 0.0
18/03:00pm WSW 9 15 - - - - - - - 17.0 1015.8 0.0
18/02:30pm WSW 8 15 - - - - - - - 16.8 1016.1 0.0
18/02:00pm WSW 9 15 - - - - - - - 16.5 1016.3 0.0
18/01:30pm WSW 10 17 - - - - - - - 16.6 1016.5 0.0
18/01:00pm SW 11 19 - - - - - - - 17.9 1016.6 0.0
18/12:30pm WSW 8 14 - - - - - - - 18.2 1016.9 0.0
18/12:00pm SW 10 15 - - - - - - - 17.8 1017.5 0.0
18/11:30am SW 9 15 - - - - - - - 17.1 1017.9 0.0
18/11:00am WSW 9 17 - - - - - - - 17.7 1018.1 0.0
18/10:30am WSW 7 14 - - - - - - - 17.3 1018.3 0.0
18/10:00am WSW 9 15 - - - - - - - 16.4 1018.8 0.0
18/09:30am SW 7 10 - - - - - - - 16.8 1019.0 0.0
18/09:00am WSW 9 17 - - - - - - - 15.5 1019.2 0.0
18/08:30am WSW 8 14 - - - - - - - 16.0 1019.3 0.0
18/08:00am W 4 6 - - - - - - - 15.1 1019.4 0.0
18/07:30am W 6 10 - - - - - - - 14.1 1019.3 0.0
18/07:00am WNW 5 8 - - - - - - - 13.4 1019.3 0.0
18/06:30am WNW 5 7 - - - - - - - 13.3 1019.4 0.0
18/06:00am W 5 8 - - - - - - - 13.3 1019.3 0.0
18/05:30am WNW 5 8 - - - - - - - 13.5 1019.3 0.0
18/05:00am WNW 5 6 - - - - - - - 13.4 1019.4 0.0
18/04:30am W 4 6 - - - - - - - 13.3 1019.6 0.0
18/04:00am WNW 5 6 - - - - - - - 13.2 1019.8 0.0
18/03:30am WNW 4 7 - - - - - - - 13.1 1020.0 0.0
18/03:00am WNW 5 7 - - - - - - - 13.2 1020.1 0.0
18/02:30am WNW 5 7 - - - - - - - 13.4 1020.6 0.0
18/02:00am WNW 5 6 - - - - - - - 13.6 1021.0 0.0
18/01:30am WNW 5 7 - - - - - - - 13.4 1021.4 0.0
18/01:00am WNW 5 7 - - - - - - - 13.5 1021.8 0.0
18/12:30am W 5 7 - - - - - - - 13.5 1022.1 0.0
18/12:00am WNW 5 7 - - - - - - - 13.2 1022.4 0.0
 
Date/Time
EST
Wind Sea
Height
m
Swell Vis
km
Cloud Weather Temp
°C
Press
MSL
hPa
Rain since
9am
mm
Dir  Spd
kts
Gust
kts
Height
m
Period
s
Dir
17/11:30pm W 6 8 - - - - - - - 13.1 1022.5 0.0
17/11:00pm WNW 5 7 - - - - - - - 13.1 1022.8 0.0
17/10:30pm WNW 5 7 - - - - - - - 13.4 1023.2 0.0
17/10:00pm WNW 5 6 - - - - - - - 13.4 1023.5 0.0
17/09:30pm WNW 5 7 - - - - - - - 14.1 1023.6 0.0
17/09:00pm WNW 5 6 - - - - - - - 14.3 1023.5 0.0
17/08:30pm WNW 5 6 - - - - - - - 14.4 1023.5 0.0
17/08:00pm WNW 5 6 - - - - - - - 14.6 1023.4 0.0
17/07:30pm W 4 5 - - - - - - - 14.8 1023.5 0.0
17/07:00pm WNW 1 4 - - - - - - - 15.0 1023.6 0.0
17/06:30pm NW 3 4 - - - - - - - 15.4 1023.6 0.0
17/06:00pm ENE 2 4 - - - - - - - 15.7 1023.5 0.0
17/05:30pm ENE 5 6 - - - - - - - 16.7 1023.4 0.0
17/05:00pm ESE 4 5 - - - - - - - 16.8 1023.3 0.0
17/04:30pm ESE 4 6 - - - - - - - 17.3 1023.4 0.0
17/04:00pm SE 5 7 - - - - - - - 17.3 1023.4 0.0
17/03:30pm ESE 4 6 - - - - - - - 17.4 1023.7 0.0
17/03:00pm ESE 5 7 - - - - - - - 17.8 1023.7 0.0
17/02:30pm SE 5 7 - - - - - - - 17.6 1023.9 0.0
17/02:00pm SE 4 7 - - - - - - - 17.6 1023.9 0.0
17/01:30pm S 6 8 - - - - - - - 17.7 1024.1 0.0
17/01:00pm S 6 8 - - - - - - - 17.9 1024.4 0.0
17/12:30pm S 5 8 - - - - - - - 18.1 1024.8 0.0
17/12:00pm SSE 5 6 - - - - - - - 18.2 1025.3 0.0
17/11:30am SSE 4 5 - - - - - - - 18.0 1025.8 0.0
17/11:00am SSE 3 4 - - - - - - - 17.4 1026.0 0.0
17/10:30am S 3 5 - - - - - - - 17.8 1026.1 0.0
17/10:00am SW 3 5 - - - - - - - 17.8 1026.1 0.0
17/09:30am WNW 4 6 - - - - - - - 16.4 1026.5 0.0
17/09:00am NW 4 6 - - - - - - - 15.9 1026.6 0.0
17/08:30am WNW 4 5 - - - - - - - 15.2 1026.5 0.0
17/08:00am WNW 5 6 - - - - - - - 14.7 1026.3 0.0
17/07:30am WNW 4 7 - - - - - - - 14.4 1026.0 0.0
17/07:00am WNW 5 7 - - - - - - - 14.0 1025.7 0.0
17/06:30am WNW 5 7 - - - - - - - 13.8 1025.4 0.0
17/06:00am WNW 5 7 - - - - - - - 13.7 1025.3 0.0
17/05:30am WNW 5 7 - - - - - - - 13.8 1025.1 0.0
17/05:00am WNW 4 4 - - - - - - - 13.9 1025.0 0.0
17/04:30am W 5 6 - - - - - - - 13.9 1024.8 0.0
17/04:00am W 4 6 - - - - - - - 13.9 1024.9 0.0
17/03:30am WNW 5 6 - - - - - - - 13.9 1024.9 0.0
17/03:00am WNW 5 8 - - - - - - - 13.9 1024.9 0.0
17/02:30am WNW 5 8 - - - - - - - 13.9 1025.1 0.0
17/02:00am WNW 4 6 - - - - - - - 13.8 1025.3 0.0
17/01:30am W 5 7 - - - - - - - 14.0 1025.4 0.0
17/01:00am WNW 5 7 - - - - - - - 13.4 1025.5 0.0

Other formats

Comma delimited format used in spreadsheet applications
http://www.bom.gov.au/fwo/IDV60701/IDV60701.94935.axf

JavaScript Object Notation format (JSON) in row-major order
http://www.bom.gov.au/fwo/IDV60701/IDV60701.94935.json

Data quality

Most of these data are generated automatically and are frequently updated. Quality checks on data are not normally performed. It is possible for incorrect values to appear. Refer to information at About Latest Weather Observations and please check the disclaimer before using these data.